sensor_id;sensor_type;location;lat;lon;timestamp;temperature;humidity
2867;DHT22;1441;48.886;8.728;2022-07-12T00:01:56;17.10;87.50
2867;DHT22;1441;48.886;8.728;2022-07-12T00:04:21;17.10;87.40
2867;DHT22;1441;48.886;8.728;2022-07-12T00:06:47;17.10;87.60
2867;DHT22;1441;48.886;8.728;2022-07-12T00:09:12;17.00;87.50
2867;DHT22;1441;48.886;8.728;2022-07-12T00:11:38;17.00;87.80
2867;DHT22;1441;48.886;8.728;2022-07-12T00:14:04;16.90;88.00
2867;DHT22;1441;48.886;8.728;2022-07-12T00:16:30;16.90;88.00
2867;DHT22;1441;48.886;8.728;2022-07-12T00:18:55;16.90;87.70
2867;DHT22;1441;48.886;8.728;2022-07-12T00:21:21;16.80;87.80
2867;DHT22;1441;48.886;8.728;2022-07-12T00:23:47;16.90;88.30
2867;DHT22;1441;48.886;8.728;2022-07-12T00:26:13;17.00;88.30
2867;DHT22;1441;48.886;8.728;2022-07-12T00:28:38;17.10;88.10
2867;DHT22;1441;48.886;8.728;2022-07-12T00:31:04;17.10;88.00
2867;DHT22;1441;48.886;8.728;2022-07-12T00:33:30;17.10;88.20
2867;DHT22;1441;48.886;8.728;2022-07-12T00:35:56;17.00;88.40
2867;DHT22;1441;48.886;8.728;2022-07-12T00:38:21;17.00;88.40
2867;DHT22;1441;48.886;8.728;2022-07-12T00:40:47;16.90;88.70
2867;DHT22;1441;48.886;8.728;2022-07-12T00:43:13;16.80;88.80
2867;DHT22;1441;48.886;8.728;2022-07-12T00:45:38;16.70;89.00
2867;DHT22;1441;48.886;8.728;2022-07-12T00:48:04;16.70;89.50
2867;DHT22;1441;48.886;8.728;2022-07-12T00:50:30;16.60;89.80
2867;DHT22;1441;48.886;8.728;2022-07-12T00:52:56;16.60;89.80
2867;DHT22;1441;48.886;8.728;2022-07-12T00:55:22;16.60;89.40
2867;DHT22;1441;48.886;8.728;2022-07-12T00:57:49;16.60;89.20
2867;DHT22;1441;48.886;8.728;2022-07-12T01:00:23;16.60;89.40
2867;DHT22;1441;48.886;8.728;2022-07-12T01:02:50;16.60;89.20
2867;DHT22;1441;48.886;8.728;2022-07-12T01:05:16;16.70;89.50
2867;DHT22;1441;48.886;8.728;2022-07-12T01:07:43;16.70;89.40
2867;DHT22;1441;48.886;8.728;2022-07-12T01:10:09;16.70;89.20
2867;DHT22;1441;48.886;8.728;2022-07-12T01:12:35;16.70;89.60
2867;DHT22;1441;48.886;8.728;2022-07-12T01:15:03;16.70;89.70
2867;DHT22;1441;48.886;8.728;2022-07-12T01:17:30;16.90;89.60
2867;DHT22;1441;48.886;8.728;2022-07-12T01:19:57;17.10;89.10
2867;DHT22;1441;48.886;8.728;2022-07-12T01:22:34;17.20;88.60
2867;DHT22;1441;48.886;8.728;2022-07-12T01:25:01;17.10;89.00
2867;DHT22;1441;48.886;8.728;2022-07-12T01:27:28;17.00;89.20
2867;DHT22;1441;48.886;8.728;2022-07-12T01:29:54;17.00;89.40
2867;DHT22;1441;48.886;8.728;2022-07-12T01:32:20;16.90;89.70
2867;DHT22;1441;48.886;8.728;2022-07-12T01:34:56;16.70;90.20
2867;DHT22;1441;48.886;8.728;2022-07-12T01:37:23;16.50;90.60
2867;DHT22;1441;48.886;8.728;2022-07-12T01:39:52;16.50;90.70
2867;DHT22;1441;48.886;8.728;2022-07-12T01:42:19;16.40;91.10
2867;DHT22;1441;48.886;8.728;2022-07-12T01:44:45;16.30;91.30
2867;DHT22;1441;48.886;8.728;2022-07-12T01:47:11;16.30;91.60
2867;DHT22;1441;48.886;8.728;2022-07-12T01:49:37;16.20;91.80
2867;DHT22;1441;48.886;8.728;2022-07-12T01:52:02;16.10;91.70
2867;DHT22;1441;48.886;8.728;2022-07-12T01:54:28;16.10;91.70
2867;DHT22;1441;48.886;8.728;2022-07-12T01:56:54;16.00;92.00
2867;DHT22;1441;48.886;8.728;2022-07-12T01:59:20;16.10;91.60
2867;DHT22;1441;48.886;8.728;2022-07-12T02:01:46;16.10;91.70
2867;DHT22;1441;48.886;8.728;2022-07-12T02:04:12;16.00;91.60
2867;DHT22;1441;48.886;8.728;2022-07-12T02:06:40;16.00;92.20
2867;DHT22;1441;48.886;8.728;2022-07-12T02:09:06;16.10;91.70
2867;DHT22;1441;48.886;8.728;2022-07-12T02:11:32;16.10;91.90
2867;DHT22;1441;48.886;8.728;2022-07-12T02:13:57;16.00;92.00
2867;DHT22;1441;48.886;8.728;2022-07-12T02:16:23;16.00;92.10
2867;DHT22;1441;48.886;8.728;2022-07-12T02:18:48;15.90;91.70
2867;DHT22;1441;48.886;8.728;2022-07-12T02:21:14;15.90;92.40
2867;DHT22;1441;48.886;8.728;2022-07-12T02:23:39;15.90;92.70
2867;DHT22;1441;48.886;8.728;2022-07-12T02:26:05;15.90;92.60
2867;DHT22;1441;48.886;8.728;2022-07-12T02:28:31;15.80;91.90
2867;DHT22;1441;48.886;8.728;2022-07-12T02:30:57;15.70;92.50
2867;DHT22;1441;48.886;8.728;2022-07-12T02:33:23;15.70;92.60
2867;DHT22;1441;48.886;8.728;2022-07-12T02:35:48;15.70;93.20
2867;DHT22;1441;48.886;8.728;2022-07-12T02:38:14;15.90;93.10
2867;DHT22;1441;48.886;8.728;2022-07-12T02:40:40;16.10;92.20
2867;DHT22;1441;48.886;8.728;2022-07-12T02:43:24;16.00;92.00
2867;DHT22;1441;48.886;8.728;2022-07-12T02:45:51;15.80;92.30
2867;DHT22;1441;48.886;8.728;2022-07-12T02:48:17;15.70;92.70
2867;DHT22;1441;48.886;8.728;2022-07-12T02:50:43;15.70;92.80
2867;DHT22;1441;48.886;8.728;2022-07-12T02:53:09;15.60;93.10
2867;DHT22;1441;48.886;8.728;2022-07-12T02:55:36;15.60;93.30
2867;DHT22;1441;48.886;8.728;2022-07-12T02:58:02;15.60;92.80
2867;DHT22;1441;48.886;8.728;2022-07-12T03:00:29;15.50;93.20
2867;DHT22;1441;48.886;8.728;2022-07-12T03:02:55;15.50;93.00
2867;DHT22;1441;48.886;8.728;2022-07-12T03:05:21;15.40;93.50
2867;DHT22;1441;48.886;8.728;2022-07-12T03:07:46;15.20;93.80
2867;DHT22;1441;48.886;8.728;2022-07-12T03:10:12;15.20;93.80
2867;DHT22;1441;48.886;8.728;2022-07-12T03:12:38;15.20;94.40
2867;DHT22;1441;48.886;8.728;2022-07-12T03:15:05;15.30;94.50
2867;DHT22;1441;48.886;8.728;2022-07-12T03:17:32;15.30;94.50
2867;DHT22;1441;48.886;8.728;2022-07-12T03:19:58;15.40;94.30
2867;DHT22;1441;48.886;8.728;2022-07-12T03:22:24;15.60;93.80
2867;DHT22;1441;48.886;8.728;2022-07-12T03:24:50;15.70;93.60
2867;DHT22;1441;48.886;8.728;2022-07-12T03:27:16;15.60;93.50
2867;DHT22;1441;48.886;8.728;2022-07-12T03:29:42;15.60;93.60
2867;DHT22;1441;48.886;8.728;2022-07-12T03:32:08;15.50;93.90
2867;DHT22;1441;48.886;8.728;2022-07-12T03:34:33;15.30;94.00
2867;DHT22;1441;48.886;8.728;2022-07-12T03:37:00;15.20;94.10
2867;DHT22;1441;48.886;8.728;2022-07-12T03:39:25;15.10;94.80
2867;DHT22;1441;48.886;8.728;2022-07-12T03:41:51;15.00;95.20
2867;DHT22;1441;48.886;8.728;2022-07-12T03:44:17;15.00;94.90
2867;DHT22;1441;48.886;8.728;2022-07-12T03:46:42;15.10;94.60
2867;DHT22;1441;48.886;8.728;2022-07-12T03:49:08;15.10;95.10
2867;DHT22;1441;48.886;8.728;2022-07-12T03:51:33;15.00;94.80
2867;DHT22;1441;48.886;8.728;2022-07-12T03:53:59;15.00;94.60
2867;DHT22;1441;48.886;8.728;2022-07-12T03:56:25;15.00;95.10
2867;DHT22;1441;48.886;8.728;2022-07-12T03:59:09;15.00;95.20
2867;DHT22;1441;48.886;8.728;2022-07-12T04:01:35;14.80;95.40
2867;DHT22;1441;48.886;8.728;2022-07-12T04:04:00;14.80;95.00
2867;DHT22;1441;48.886;8.728;2022-07-12T04:06:27;14.90;95.30
2867;DHT22;1441;48.886;8.728;2022-07-12T04:08:53;14.90;95.50
2867;DHT22;1441;48.886;8.728;2022-07-12T04:11:19;15.10;95.40
2867;DHT22;1441;48.886;8.728;2022-07-12T04:13:44;15.30;95.10
2867;DHT22;1441;48.886;8.728;2022-07-12T04:16:10;15.40;94.60
2867;DHT22;1441;48.886;8.728;2022-07-12T04:18:35;15.30;94.40
2867;DHT22;1441;48.886;8.728;2022-07-12T04:21:01;15.30;94.60
2867;DHT22;1441;48.886;8.728;2022-07-12T04:23:26;15.40;94.60
2867;DHT22;1441;48.886;8.728;2022-07-12T04:25:52;15.40;94.40
2867;DHT22;1441;48.886;8.728;2022-07-12T04:28:17;15.40;94.20
2867;DHT22;1441;48.886;8.728;2022-07-12T04:30:43;15.20;94.10
2867;DHT22;1441;48.886;8.728;2022-07-12T04:33:10;15.10;94.80
2867;DHT22;1441;48.886;8.728;2022-07-12T04:35:36;15.00;95.50
2867;DHT22;1441;48.886;8.728;2022-07-12T04:38:03;15.00;96.30
2867;DHT22;1441;48.886;8.728;2022-07-12T04:40:28;15.00;96.50
2867;DHT22;1441;48.886;8.728;2022-07-12T04:42:54;15.00;96.30
2867;DHT22;1441;48.886;8.728;2022-07-12T04:45:20;15.00;96.60
2867;DHT22;1441;48.886;8.728;2022-07-12T04:47:46;15.00;96.10
2867;DHT22;1441;48.886;8.728;2022-07-12T04:50:12;15.00;95.80
2867;DHT22;1441;48.886;8.728;2022-07-12T04:52:37;15.10;96.10
2867;DHT22;1441;48.886;8.728;2022-07-12T04:55:04;15.20;95.60
2867;DHT22;1441;48.886;8.728;2022-07-12T04:57:30;15.20;95.10
2867;DHT22;1441;48.886;8.728;2022-07-12T04:59:55;15.30;94.90
2867;DHT22;1441;48.886;8.728;2022-07-12T05:02:21;15.40;94.60
2867;DHT22;1441;48.886;8.728;2022-07-12T05:04:46;15.50;94.70
2867;DHT22;1441;48.886;8.728;2022-07-12T05:07:12;15.60;94.80
2867;DHT22;1441;48.886;8.728;2022-07-12T05:09:37;15.70;94.80
2867;DHT22;1441;48.886;8.728;2022-07-12T05:12:03;15.70;94.70
2867;DHT22;1441;48.886;8.728;2022-07-12T05:14:29;15.70;94.60
2867;DHT22;1441;48.886;8.728;2022-07-12T05:16:55;15.80;94.50
2867;DHT22;1441;48.886;8.728;2022-07-12T05:19:20;15.90;94.60
2867;DHT22;1441;48.886;8.728;2022-07-12T05:21:46;15.90;94.40
2867;DHT22;1441;48.886;8.728;2022-07-12T05:24:12;16.00;94.20
2867;DHT22;1441;48.886;8.728;2022-07-12T05:26:38;16.20;93.80
2867;DHT22;1441;48.886;8.728;2022-07-12T05:29:03;16.40;93.10
2867;DHT22;1441;48.886;8.728;2022-07-12T05:31:29;16.60;92.50
2867;DHT22;1441;48.886;8.728;2022-07-12T05:33:54;16.80;91.80
2867;DHT22;1441;48.886;8.728;2022-07-12T05:36:20;17.10;90.70
2867;DHT22;1441;48.886;8.728;2022-07-12T05:38:46;17.40;90.90
2867;DHT22;1441;48.886;8.728;2022-07-12T05:41:12;17.60;90.00
2867;DHT22;1441;48.886;8.728;2022-07-12T05:43:38;17.90;89.60
2867;DHT22;1441;48.886;8.728;2022-07-12T05:46:03;18.10;89.10
2867;DHT22;1441;48.886;8.728;2022-07-12T05:48:29;18.50;87.20
2867;DHT22;1441;48.886;8.728;2022-07-12T05:50:55;19.20;84.70
2867;DHT22;1441;48.886;8.728;2022-07-12T05:53:20;19.70;83.00
2867;DHT22;1441;48.886;8.728;2022-07-12T05:55:53;20.30;80.90
2867;DHT22;1441;48.886;8.728;2022-07-12T05:58:20;21.40;76.90
2867;DHT22;1441;48.886;8.728;2022-07-12T06:00:46;22.50;73.30
2867;DHT22;1441;48.886;8.728;2022-07-12T06:03:13;23.40;70.20
2867;DHT22;1441;48.886;8.728;2022-07-12T06:05:39;23.90;68.70
2867;DHT22;1441;48.886;8.728;2022-07-12T06:08:05;24.20;68.20
2867;DHT22;1441;48.886;8.728;2022-07-12T06:10:31;24.90;66.50
2867;DHT22;1441;48.886;8.728;2022-07-12T06:12:57;25.60;64.50
2867;DHT22;1441;48.886;8.728;2022-07-12T06:15:23;26.10;63.10
2867;DHT22;1441;48.886;8.728;2022-07-12T06:17:50;26.60;62.50
2867;DHT22;1441;48.886;8.728;2022-07-12T06:20:15;26.90;61.60
2867;DHT22;1441;48.886;8.728;2022-07-12T06:22:41;27.20;60.50
2867;DHT22;1441;48.886;8.728;2022-07-12T06:25:07;27.50;58.90
2867;DHT22;1441;48.886;8.728;2022-07-12T06:27:33;27.90;57.30
2867;DHT22;1441;48.886;8.728;2022-07-12T06:29:59;27.50;57.80
2867;DHT22;1441;48.886;8.728;2022-07-12T06:32:24;26.20;59.80
2867;DHT22;1441;48.886;8.728;2022-07-12T06:34:50;25.00;62.40
2867;DHT22;1441;48.886;8.728;2022-07-12T06:37:15;24.10;65.30
2867;DHT22;1441;48.886;8.728;2022-07-12T06:39:41;24.00;65.30
2867;DHT22;1441;48.886;8.728;2022-07-12T06:42:07;23.70;65.80
2867;DHT22;1441;48.886;8.728;2022-07-12T06:44:33;23.50;66.90
2867;DHT22;1441;48.886;8.728;2022-07-12T06:46:59;23.60;66.60
2867;DHT22;1441;48.886;8.728;2022-07-12T06:49:25;23.70;66.70
2867;DHT22;1441;48.886;8.728;2022-07-12T06:51:51;23.90;66.00
2867;DHT22;1441;48.886;8.728;2022-07-12T06:54:16;23.90;65.70
2867;DHT22;1441;48.886;8.728;2022-07-12T06:56:42;23.60;66.30
2867;DHT22;1441;48.886;8.728;2022-07-12T06:59:07;23.50;66.40
2867;DHT22;1441;48.886;8.728;2022-07-12T07:01:36;23.40;67.40
2867;DHT22;1441;48.886;8.728;2022-07-12T07:04:02;23.50;65.70
2867;DHT22;1441;48.886;8.728;2022-07-12T07:06:28;23.60;65.50
2867;DHT22;1441;48.886;8.728;2022-07-12T07:08:53;23.70;65.40
2867;DHT22;1441;48.886;8.728;2022-07-12T07:11:19;23.80;65.50
2867;DHT22;1441;48.886;8.728;2022-07-12T07:13:45;23.90;65.70
2867;DHT22;1441;48.886;8.728;2022-07-12T07:16:10;24.10;65.90
2867;DHT22;1441;48.886;8.728;2022-07-12T07:18:36;24.20;63.90
2867;DHT22;1441;48.886;8.728;2022-07-12T07:21:01;24.40;64.10
2867;DHT22;1441;48.886;8.728;2022-07-12T07:23:27;24.50;64.50
2867;DHT22;1441;48.886;8.728;2022-07-12T07:25:53;24.60;63.30
2867;DHT22;1441;48.886;8.728;2022-07-12T07:28:19;24.70;63.10
2867;DHT22;1441;48.886;8.728;2022-07-12T07:30:44;24.80;63.70
2867;DHT22;1441;48.886;8.728;2022-07-12T07:33:23;25.10;62.30
2867;DHT22;1441;48.886;8.728;2022-07-12T07:35:50;25.30;62.00
2867;DHT22;1441;48.886;8.728;2022-07-12T07:38:17;25.20;62.00
2867;DHT22;1441;48.886;8.728;2022-07-12T07:40:43;25.50;61.00
2867;DHT22;1441;48.886;8.728;2022-07-12T07:43:09;25.70;61.10
2867;DHT22;1441;48.886;8.728;2022-07-12T07:45:34;26.00;60.90
2867;DHT22;1441;48.886;8.728;2022-07-12T07:48:00;26.10;60.90
2867;DHT22;1441;48.886;8.728;2022-07-12T07:50:26;26.40;59.80
2867;DHT22;1441;48.886;8.728;2022-07-12T07:52:52;26.40;60.20
2867;DHT22;1441;48.886;8.728;2022-07-12T07:55:18;26.40;60.20
2867;DHT22;1441;48.886;8.728;2022-07-12T07:57:44;26.20;60.20
2867;DHT22;1441;48.886;8.728;2022-07-12T08:00:10;26.20;60.20
2867;DHT22;1441;48.886;8.728;2022-07-12T08:02:36;26.30;59.10
2867;DHT22;1441;48.886;8.728;2022-07-12T08:05:02;26.30;59.00
2867;DHT22;1441;48.886;8.728;2022-07-12T08:07:28;26.70;57.60
2867;DHT22;1441;48.886;8.728;2022-07-12T08:09:53;26.80;58.00
2867;DHT22;1441;48.886;8.728;2022-07-12T08:12:19;26.90;57.70
2867;DHT22;1441;48.886;8.728;2022-07-12T08:14:44;26.60;58.00
2867;DHT22;1441;48.886;8.728;2022-07-12T08:17:10;26.30;58.30
2867;DHT22;1441;48.886;8.728;2022-07-12T08:19:36;26.40;58.50
2867;DHT22;1441;48.886;8.728;2022-07-12T08:22:01;26.90;56.40
2867;DHT22;1441;48.886;8.728;2022-07-12T08:24:27;27.10;56.20
2867;DHT22;1441;48.886;8.728;2022-07-12T08:26:53;27.00;56.30
2867;DHT22;1441;48.886;8.728;2022-07-12T08:29:18;27.30;55.20
2867;DHT22;1441;48.886;8.728;2022-07-12T08:31:44;27.30;55.40
2867;DHT22;1441;48.886;8.728;2022-07-12T08:34:10;27.00;56.50
2867;DHT22;1441;48.886;8.728;2022-07-12T08:36:36;26.70;56.80
2867;DHT22;1441;48.886;8.728;2022-07-12T08:39:02;26.50;58.00
2867;DHT22;1441;48.886;8.728;2022-07-12T08:41:28;26.60;57.60
2867;DHT22;1441;48.886;8.728;2022-07-12T08:43:54;26.80;57.50
2867;DHT22;1441;48.886;8.728;2022-07-12T08:46:20;27.20;56.80
2867;DHT22;1441;48.886;8.728;2022-07-12T08:48:46;27.30;57.00
2867;DHT22;1441;48.886;8.728;2022-07-12T08:51:14;27.50;56.00
2867;DHT22;1441;48.886;8.728;2022-07-12T08:53:40;27.80;54.90
2867;DHT22;1441;48.886;8.728;2022-07-12T08:56:06;28.00;54.60
2867;DHT22;1441;48.886;8.728;2022-07-12T08:58:32;27.80;55.60
2867;DHT22;1441;48.886;8.728;2022-07-12T09:00:58;27.70;56.20
2867;DHT22;1441;48.886;8.728;2022-07-12T09:03:25;27.50;56.30
2867;DHT22;1441;48.886;8.728;2022-07-12T09:05:54;27.30;57.00
2867;DHT22;1441;48.886;8.728;2022-07-12T09:08:31;27.70;56.60
2867;DHT22;1441;48.886;8.728;2022-07-12T09:11:03;27.70;54.10
2867;DHT22;1441;48.886;8.728;2022-07-12T09:13:53;27.00;56.20
2867;DHT22;1441;48.886;8.728;2022-07-12T09:16:24;26.70;57.50
2867;DHT22;1441;48.886;8.728;2022-07-12T09:18:50;27.00;57.70
2867;DHT22;1441;48.886;8.728;2022-07-12T09:21:27;26.80;57.30
2867;DHT22;1441;48.886;8.728;2022-07-12T09:23:57;26.60;57.20
2867;DHT22;1441;48.886;8.728;2022-07-12T09:26:29;26.00;59.40
2867;DHT22;1441;48.886;8.728;2022-07-12T09:29:08;26.00;59.20
2867;DHT22;1441;48.886;8.728;2022-07-12T09:31:47;26.20;59.00
2867;DHT22;1441;48.886;8.728;2022-07-12T09:34:31;26.50;58.60
2867;DHT22;1441;48.886;8.728;2022-07-12T09:37:16;26.90;57.10
2867;DHT22;1441;48.886;8.728;2022-07-12T09:39:42;27.10;57.40
2867;DHT22;1441;48.886;8.728;2022-07-12T09:42:09;27.40;55.70
2867;DHT22;1441;48.886;8.728;2022-07-12T09:44:36;27.40;55.60
2867;DHT22;1441;48.886;8.728;2022-07-12T09:47:01;27.60;54.80
2867;DHT22;1441;48.886;8.728;2022-07-12T09:49:27;27.60;55.40
2867;DHT22;1441;48.886;8.728;2022-07-12T09:51:55;27.60;55.00
2867;DHT22;1441;48.886;8.728;2022-07-12T09:54:27;27.60;55.30
2867;DHT22;1441;48.886;8.728;2022-07-12T09:56:53;27.50;56.40
2867;DHT22;1441;48.886;8.728;2022-07-12T09:59:23;27.20;56.40
2867;DHT22;1441;48.886;8.728;2022-07-12T10:01:50;27.00;57.30
2867;DHT22;1441;48.886;8.728;2022-07-12T10:04:20;27.30;56.10
2867;DHT22;1441;48.886;8.728;2022-07-12T10:06:49;28.00;54.70
2867;DHT22;1441;48.886;8.728;2022-07-12T10:09:15;28.40;53.60
2867;DHT22;1441;48.886;8.728;2022-07-12T10:11:42;28.70;52.50
2867;DHT22;1441;48.886;8.728;2022-07-12T10:14:12;29.20;51.60
2867;DHT22;1441;48.886;8.728;2022-07-12T10:16:38;29.70;50.90
2867;DHT22;1441;48.886;8.728;2022-07-12T10:19:30;29.50;50.70
2867;DHT22;1441;48.886;8.728;2022-07-12T10:22:05;29.60;52.00
2867;DHT22;1441;48.886;8.728;2022-07-12T10:29:45;29.70;52.70
2867;DHT22;1441;48.886;8.728;2022-07-12T10:32:22;29.80;52.60
2867;DHT22;1441;48.886;8.728;2022-07-12T10:34:58;29.60;51.90
2867;DHT22;1441;48.886;8.728;2022-07-12T10:37:25;29.70;52.00
2867;DHT22;1441;48.886;8.728;2022-07-12T10:42:39;29.60;52.80
2867;DHT22;1441;48.886;8.728;2022-07-12T10:45:15;29.20;53.30
2867;DHT22;1441;48.886;8.728;2022-07-12T10:47:57;29.00;53.70
2867;DHT22;1441;48.886;8.728;2022-07-12T10:58:46;29.50;51.70
2867;DHT22;1441;48.886;8.728;2022-07-12T11:01:17;29.60;51.40
2867;DHT22;1441;48.886;8.728;2022-07-12T11:03:50;29.60;51.50
2867;DHT22;1441;48.886;8.728;2022-07-12T11:06:24;29.80;50.60
2867;DHT22;1441;48.886;8.728;2022-07-12T11:08:58;29.70;50.40
2867;DHT22;1441;48.886;8.728;2022-07-12T11:11:39;29.60;50.70
2867;DHT22;1441;48.886;8.728;2022-07-12T11:14:05;29.70;52.10
2867;DHT22;1441;48.886;8.728;2022-07-12T11:16:31;29.90;51.40
2867;DHT22;1441;48.886;8.728;2022-07-12T11:18:57;29.90;51.40
2867;DHT22;1441;48.886;8.728;2022-07-12T11:21:23;30.10;50.90
2867;DHT22;1441;48.886;8.728;2022-07-12T11:23:50;30.30;50.40
2867;DHT22;1441;48.886;8.728;2022-07-12T11:26:16;30.40;50.40
2867;DHT22;1441;48.886;8.728;2022-07-12T11:28:43;30.40;49.30
2867;DHT22;1441;48.886;8.728;2022-07-12T11:31:13;30.30;49.70
2867;DHT22;1441;48.886;8.728;2022-07-12T11:33:41;30.30;49.90
2867;DHT22;1441;48.886;8.728;2022-07-12T11:36:08;30.20;50.30
2867;DHT22;1441;48.886;8.728;2022-07-12T11:38:35;30.10;50.60
2867;DHT22;1441;48.886;8.728;2022-07-12T11:41:03;30.00;51.30
2867;DHT22;1441;48.886;8.728;2022-07-12T11:43:30;30.00;49.60
2867;DHT22;1441;48.886;8.728;2022-07-12T11:45:57;29.80;50.70
2867;DHT22;1441;48.886;8.728;2022-07-12T11:48:23;29.90;50.10
2867;DHT22;1441;48.886;8.728;2022-07-12T11:50:53;30.10;48.50
2867;DHT22;1441;48.886;8.728;2022-07-12T11:53:24;29.80;47.70
2867;DHT22;1441;48.886;8.728;2022-07-12T11:55:53;29.10;49.30
2867;DHT22;1441;48.886;8.728;2022-07-12T11:58:19;28.50;51.00
2867;DHT22;1441;48.886;8.728;2022-07-12T12:00:46;28.70;51.20
2867;DHT22;1441;48.886;8.728;2022-07-12T12:03:14;29.20;50.20
2867;DHT22;1441;48.886;8.728;2022-07-12T12:05:42;29.40;49.50
2867;DHT22;1441;48.886;8.728;2022-07-12T12:08:09;29.40;49.90
2867;DHT22;1441;48.886;8.728;2022-07-12T12:10:38;29.30;48.90
2867;DHT22;1441;48.886;8.728;2022-07-12T12:13:11;29.50;49.40
2867;DHT22;1441;48.886;8.728;2022-07-12T12:15:37;29.70;49.80
2867;DHT22;1441;48.886;8.728;2022-07-12T12:18:07;29.50;50.40
2867;DHT22;1441;48.886;8.728;2022-07-12T12:20:37;29.90;49.00
2867;DHT22;1441;48.886;8.728;2022-07-12T12:23:18;30.20;48.20
2867;DHT22;1441;48.886;8.728;2022-07-12T12:25:44;30.10;48.00
2867;DHT22;1441;48.886;8.728;2022-07-12T12:28:11;30.10;47.20
2867;DHT22;1441;48.886;8.728;2022-07-12T12:33:38;30.00;48.60
2867;DHT22;1441;48.886;8.728;2022-07-12T12:38:36;29.10;50.00
2867;DHT22;1441;48.886;8.728;2022-07-12T12:41:02;28.90;50.20
2867;DHT22;1441;48.886;8.728;2022-07-12T12:43:28;29.00;51.20
2867;DHT22;1441;48.886;8.728;2022-07-12T12:45:56;29.40;50.10
2867;DHT22;1441;48.886;8.728;2022-07-12T12:48:32;29.70;49.70
2867;DHT22;1441;48.886;8.728;2022-07-12T12:53:34;29.70;50.20
2867;DHT22;1441;48.886;8.728;2022-07-12T12:56:00;29.60;49.30
2867;DHT22;1441;48.886;8.728;2022-07-12T12:58:26;29.90;48.80
2867;DHT22;1441;48.886;8.728;2022-07-12T13:00:54;30.10;48.60
2867;DHT22;1441;48.886;8.728;2022-07-12T13:03:21;29.90;50.50
2867;DHT22;1441;48.886;8.728;2022-07-12T13:05:47;30.00;50.60
2867;DHT22;1441;48.886;8.728;2022-07-12T13:08:14;29.90;49.00
2867;DHT22;1441;48.886;8.728;2022-07-12T13:10:41;30.10;49.50
2867;DHT22;1441;48.886;8.728;2022-07-12T13:13:08;30.30;50.50
2867;DHT22;1441;48.886;8.728;2022-07-12T13:15:34;30.20;50.60
2867;DHT22;1441;48.886;8.728;2022-07-12T13:18:00;30.40;50.10
2867;DHT22;1441;48.886;8.728;2022-07-12T13:20:27;30.60;48.60
2867;DHT22;1441;48.886;8.728;2022-07-12T13:22:53;30.70;48.30
2867;DHT22;1441;48.886;8.728;2022-07-12T13:25:19;30.20;48.40
2867;DHT22;1441;48.886;8.728;2022-07-12T13:27:45;30.10;49.00
2867;DHT22;1441;48.886;8.728;2022-07-12T13:30:14;30.20;49.40
2867;DHT22;1441;48.886;8.728;2022-07-12T13:32:40;30.20;48.80
2867;DHT22;1441;48.886;8.728;2022-07-12T13:35:08;30.20;48.50
2867;DHT22;1441;48.886;8.728;2022-07-12T13:37:35;29.60;49.30
2867;DHT22;1441;48.886;8.728;2022-07-12T13:40:01;29.60;49.80
2867;DHT22;1441;48.886;8.728;2022-07-12T13:42:52;29.80;49.90
2867;DHT22;1441;48.886;8.728;2022-07-12T13:45:23;29.90;50.20
2867;DHT22;1441;48.886;8.728;2022-07-12T13:47:49;30.00;51.20
2867;DHT22;1441;48.886;8.728;2022-07-12T13:50:18;30.00;50.00
2867;DHT22;1441;48.886;8.728;2022-07-12T13:52:45;30.30;49.40
2867;DHT22;1441;48.886;8.728;2022-07-12T13:55:12;30.40;48.30
2867;DHT22;1441;48.886;8.728;2022-07-12T13:57:39;30.30;48.10
2867;DHT22;1441;48.886;8.728;2022-07-12T14:00:10;30.30;48.80
2867;DHT22;1441;48.886;8.728;2022-07-12T14:02:40;30.40;48.60
2867;DHT22;1441;48.886;8.728;2022-07-12T14:05:09;30.50;47.10
2867;DHT22;1441;48.886;8.728;2022-07-12T14:07:36;30.50;47.60
2867;DHT22;1441;48.886;8.728;2022-07-12T14:10:03;30.30;48.20
2867;DHT22;1441;48.886;8.728;2022-07-12T14:12:29;30.30;47.40
2867;DHT22;1441;48.886;8.728;2022-07-12T14:14:54;30.40;47.30
2867;DHT22;1441;48.886;8.728;2022-07-12T14:17:42;30.40;46.60
2867;DHT22;1441;48.886;8.728;2022-07-12T14:20:09;30.40;47.30
2867;DHT22;1441;48.886;8.728;2022-07-12T14:22:36;30.20;48.70
2867;DHT22;1441;48.886;8.728;2022-07-12T14:25:02;30.30;47.60
2867;DHT22;1441;48.886;8.728;2022-07-12T14:27:30;30.30;48.30
2867;DHT22;1441;48.886;8.728;2022-07-12T14:29:56;30.30;47.60
2867;DHT22;1441;48.886;8.728;2022-07-12T14:32:21;30.40;47.70
2867;DHT22;1441;48.886;8.728;2022-07-12T14:34:47;30.30;48.60
2867;DHT22;1441;48.886;8.728;2022-07-12T14:37:12;30.30;48.80
2867;DHT22;1441;48.886;8.728;2022-07-12T14:39:38;30.50;48.60
2867;DHT22;1441;48.886;8.728;2022-07-12T14:42:04;30.40;48.20
2867;DHT22;1441;48.886;8.728;2022-07-12T14:44:30;30.60;47.50
2867;DHT22;1441;48.886;8.728;2022-07-12T14:46:55;30.70;47.50
2867;DHT22;1441;48.886;8.728;2022-07-12T14:49:21;30.60;46.70
2867;DHT22;1441;48.886;8.728;2022-07-12T14:51:48;30.40;46.80
2867;DHT22;1441;48.886;8.728;2022-07-12T14:54:14;30.20;47.30
2867;DHT22;1441;48.886;8.728;2022-07-12T14:56:39;30.10;47.40
2867;DHT22;1441;48.886;8.728;2022-07-12T14:59:05;29.90;46.80
2867;DHT22;1441;48.886;8.728;2022-07-12T15:01:31;29.70;47.00
2867;DHT22;1441;48.886;8.728;2022-07-12T15:03:57;29.60;48.00
2867;DHT22;1441;48.886;8.728;2022-07-12T15:06:22;29.60;48.30
2867;DHT22;1441;48.886;8.728;2022-07-12T15:08:50;29.50;47.50
2867;DHT22;1441;48.886;8.728;2022-07-12T15:11:16;29.50;48.30
2867;DHT22;1441;48.886;8.728;2022-07-12T15:13:41;29.50;48.60
2867;DHT22;1441;48.886;8.728;2022-07-12T15:16:07;29.60;46.70
2867;DHT22;1441;48.886;8.728;2022-07-12T15:18:33;29.50;46.70
2867;DHT22;1441;48.886;8.728;2022-07-12T15:20:58;29.60;47.00
2867;DHT22;1441;48.886;8.728;2022-07-12T15:23:24;29.60;47.10
2867;DHT22;1441;48.886;8.728;2022-07-12T15:25:53;29.60;46.90
2867;DHT22;1441;48.886;8.728;2022-07-12T15:28:19;29.70;47.00
2867;DHT22;1441;48.886;8.728;2022-07-12T15:30:46;29.70;47.70
2867;DHT22;1441;48.886;8.728;2022-07-12T15:33:12;29.70;46.90
2867;DHT22;1441;48.886;8.728;2022-07-12T15:35:37;29.70;45.70
2867;DHT22;1441;48.886;8.728;2022-07-12T15:38:03;29.80;46.00
2867;DHT22;1441;48.886;8.728;2022-07-12T15:40:29;29.90;46.30
2867;DHT22;1441;48.886;8.728;2022-07-12T15:42:54;29.90;46.20
2867;DHT22;1441;48.886;8.728;2022-07-12T15:45:20;29.90;46.20
2867;DHT22;1441;48.886;8.728;2022-07-12T15:47:46;29.90;46.30
2867;DHT22;1441;48.886;8.728;2022-07-12T15:50:11;29.80;46.80
2867;DHT22;1441;48.886;8.728;2022-07-12T15:52:37;29.70;46.50
2867;DHT22;1441;48.886;8.728;2022-07-12T15:55:21;29.50;47.60
2867;DHT22;1441;48.886;8.728;2022-07-12T15:57:47;29.60;48.30
2867;DHT22;1441;48.886;8.728;2022-07-12T16:00:12;29.50;49.40
2867;DHT22;1441;48.886;8.728;2022-07-12T16:02:39;29.60;48.30
2867;DHT22;1441;48.886;8.728;2022-07-12T16:05:05;29.70;48.20
2867;DHT22;1441;48.886;8.728;2022-07-12T16:07:31;29.60;48.30
2867;DHT22;1441;48.886;8.728;2022-07-12T16:10:01;29.50;47.90
2867;DHT22;1441;48.886;8.728;2022-07-12T16:12:27;29.50;47.80
2867;DHT22;1441;48.886;8.728;2022-07-12T16:14:52;29.40;47.80
2867;DHT22;1441;48.886;8.728;2022-07-12T16:17:20;29.40;48.60
2867;DHT22;1441;48.886;8.728;2022-07-12T16:19:45;29.40;48.20
2867;DHT22;1441;48.886;8.728;2022-07-12T16:22:11;29.30;48.40
2867;DHT22;1441;48.886;8.728;2022-07-12T16:24:37;29.20;48.70
2867;DHT22;1441;48.886;8.728;2022-07-12T16:27:03;29.20;48.50